Time;durP1;ratioP1;P1;durP2;ratioP2;P2;SDS_P1;SDS_P2;PMS_P1;PMS_P2;Temp;Humidity;BMP_temperature;BMP_pressure;BME280_temperature;BME280_humidity;BME280_pressure;Samples;Min_cycle;Max_cycle;Signal;HPM_P1;HPM_P2
2022/07/30 00:00:44;;;;;;;7.63;3.63;;;;;;;-150.27;100.00;61272.81;5269693;28;20056;-74
2022/07/30 00:03:16;;;;;;;11.70;3.73;;;;;;;-150.27;100.00;61272.81;5269160;28;20069;-74
2022/07/30 00:05:47;;;;;;;14.07;4.23;;;;;;;-150.27;100.00;61272.81;5270543;28;20487;-72
2022/07/30 00:08:19;;;;;;;12.43;4.13;;;;;;;-150.27;100.00;61272.81;5269434;28;20650;-72
2022/07/30 00:10:51;;;;;;;9.03;3.77;;;;;;;-150.27;100.00;61272.81;5270008;28;20040;-72
2022/07/30 00:13:22;;;;;;;15.33;4.33;;;;;;;-150.27;100.00;61272.81;5269257;28;20048;-71
2022/07/30 00:15:53;;;;;;;9.27;4.13;;;;;;;-150.27;100.00;61272.81;5269786;28;20441;-73
2022/07/30 00:18:24;;;;;;;12.10;4.00;;;;;;;-150.27;100.00;61272.81;5269722;28;20095;-73
2022/07/30 00:20:56;;;;;;;14.17;4.03;;;;;;;-150.27;100.00;61272.81;5269967;28;20120;-72
2022/07/30 00:23:27;;;;;;;11.87;3.63;;;;;;;-150.27;100.00;61272.81;5270309;28;20020;-72
2022/07/30 00:25:58;;;;;;;9.47;4.43;;;;;;;-150.27;100.00;61272.81;5272382;28;20043;-73
2022/07/30 00:28:30;;;;;;;9.07;4.23;;;;;;;-150.27;100.00;61272.81;5272607;28;20106;-74
2022/07/30 00:31:01;;;;;;;9.37;4.27;;;;;;;-150.27;100.00;61272.81;5271571;28;20745;-74
2022/07/30 00:33:32;;;;;;;11.40;4.53;;;;;;;-150.27;100.00;61272.81;5271735;28;20458;-74
2022/07/30 00:36:04;;;;;;;11.93;5.40;;;;;;;-150.27;100.00;61272.81;5269132;28;20093;-74
2022/07/30 00:38:35;;;;;;;16.27;5.87;;;;;;;-150.27;100.00;61272.81;5289082;28;20021;-73
2022/07/30 00:41:06;;;;;;;9.57;4.13;;;;;;;-150.27;100.00;61272.81;5277938;28;20107;-73
2022/07/30 00:43:38;;;;;;;12.67;4.90;;;;;;;-150.27;100.00;61272.81;5272820;28;20036;-72
2022/07/30 00:46:09;;;;;;;8.23;4.93;;;;;;;-150.27;100.00;61272.81;5274398;28;20024;-73
2022/07/30 00:48:41;;;;;;;11.43;5.53;;;;;;;-150.27;100.00;61272.81;5279395;28;20668;-74
2022/07/30 00:51:12;;;;;;;15.10;5.67;;;;;;;-150.27;100.00;61272.81;5271763;28;20021;-73
2022/07/30 00:53:43;;;;;;;17.23;5.77;;;;;;;-150.27;100.00;61272.81;5273453;28;20041;-74
2022/07/30 00:56:15;;;;;;;10.53;5.30;;;;;;;-150.27;100.00;61272.81;5273196;28;20040;-74
2022/07/30 00:58:46;;;;;;;12.60;5.70;;;;;;;-150.27;100.00;61272.81;5273547;28;20039;-74
2022/07/30 01:01:17;;;;;;;10.30;5.03;;;;;;;-150.27;100.00;61272.81;5273413;28;20024;-71
2022/07/30 01:03:49;;;;;;;12.37;5.37;;;;;;;-150.27;100.00;61272.81;5297081;22;20516;-73
2022/07/30 01:06:20;;;;;;;10.40;5.83;;;;;;;-150.27;100.00;61272.81;5260344;28;20127;-74
2022/07/30 01:08:53;;;;;;;11.47;5.77;;;;;;;-150.27;100.00;61272.81;5256094;28;20467;-74
2022/07/30 01:11:32;;;;;;;13.47;5.97;;;;;;;-150.27;100.00;61272.81;5230665;28;20027;-73
2022/07/30 01:14:05;;;;;;;9.20;5.63;;;;;;;-150.27;100.00;61272.81;5231861;28;20404;-73
2022/07/30 01:16:38;;;;;;;14.77;7.33;;;;;;;-150.27;100.00;61272.81;5232134;28;20025;-74
2022/07/30 01:22:36;;;;;;;14.57;7.10;;;;;;;-150.27;100.00;61272.81;5247445;28;20120;-73
2022/07/30 01:25:32;;;;;;;12.20;7.10;;;;;;;-150.27;100.00;61272.81;5240658;28;20053;-73
2022/07/30 01:28:11;;;;;;;11.57;6.50;;;;;;;-150.27;100.00;61272.81;5251943;28;20078;-73
2022/07/30 01:30:44;;;;;;;10.10;6.50;;;;;;;-150.27;100.00;61272.81;5252538;28;20452;-74
2022/07/30 01:33:17;;;;;;;15.67;7.40;;;;;;;-150.27;100.00;61272.81;5251759;28;20505;-74
2022/07/30 01:35:50;;;;;;;15.40;7.73;;;;;;;-150.27;100.00;61272.81;5252404;28;20083;-74
2022/07/30 01:38:24;;;;;;;15.03;7.77;;;;;;;-150.27;100.00;61272.81;5251849;28;20028;-73
2022/07/30 01:40:56;;;;;;;16.10;8.27;;;;;;;-150.27;100.00;61272.81;5250865;28;20029;-74
2022/07/30 01:43:29;;;;;;;12.83;7.40;;;;;;;-150.27;100.00;61272.81;5251177;28;20425;-74
2022/07/30 01:46:02;;;;;;;14.30;8.33;;;;;;;-150.27;100.00;61272.81;5249935;28;20053;-73
2022/07/30 01:48:39;;;;;;;15.05;7.88;;;;;;;-150.27;100.00;61272.81;5249634;28;20032;-73
2022/07/30 01:51:12;;;;;;;12.50;6.93;;;;;;;-150.27;100.00;61272.81;5248510;28;20024;-74
2022/07/30 01:53:46;;;;;;;24.50;7.20;;;;;;;-150.27;100.00;61272.81;5251552;28;20032;-73
2022/07/30 01:56:20;;;;;;;10.67;7.37;;;;;;;-150.27;100.00;61272.81;5249767;28;20025;-72
2022/07/30 01:58:54;;;;;;;13.35;7.88;;;;;;;-150.27;100.00;61272.81;5251265;28;20028;-73
2022/07/30 02:01:25;;;;;;;12.45;8.93;;;;;;;-150.27;100.00;61272.81;5250755;28;20117;-73
2022/07/30 02:04:00;;;;;;;10.70;7.90;;;;;;;-150.27;100.00;61272.81;5250659;28;20072;-71
2022/07/30 02:06:39;;;;;;;14.03;7.77;;;;;;;-150.27;100.00;61272.81;5250631;28;20424;-73
2022/07/30 02:09:14;;;;;;;21.77;8.37;;;;;;;-150.27;100.00;61272.81;5249212;28;20598;-73
2022/07/30 02:14:49;;;;;;;15.47;8.97;;;;;;;-150.27;100.00;61272.81;5249725;28;20127;-73
2022/07/30 02:17:35;;;;;;;13.47;8.80;;;;;;;-150.27;100.00;61272.81;5250016;28;20626;-74
2022/07/30 02:20:10;;;;;;;15.03;9.73;;;;;;;-150.27;100.00;61272.81;5247532;28;20045;-73
2022/07/30 02:22:45;;;;;;;21.43;9.80;;;;;;;-150.27;100.00;61272.81;5250036;28;20060;-74
2022/07/30 02:25:19;;;;;;;17.20;10.13;;;;;;;-150.27;100.00;61272.81;5264999;28;20029;-73
2022/07/30 02:27:55;;;;;;;17.17;9.37;;;;;;;-150.27;100.00;61272.81;5251198;28;20379;-73
2022/07/30 02:30:30;;;;;;;14.70;9.63;;;;;;;-150.27;100.00;61272.81;5250269;28;20067;-74
2022/07/30 02:33:07;;;;;;;13.07;10.10;;;;;;;-150.27;100.00;61272.81;5248265;28;20024;-74
2022/07/30 02:35:39;;;;;;;14.87;10.10;;;;;;;-150.27;100.00;61272.81;5249675;28;20027;-73
2022/07/30 02:38:15;;;;;;;14.27;9.97;;;;;;;-150.27;100.00;61272.81;5248408;28;20479;-74
2022/07/30 02:40:48;;;;;;;15.70;10.83;;;;;;;-150.27;100.00;61272.81;5248489;28;20484;-73
2022/07/30 02:43:23;;;;;;;16.25;10.35;;;;;;;-150.27;100.00;61272.81;5250623;28;20483;-73
2022/07/30 02:45:58;;;;;;;16.27;11.30;;;;;;;-150.27;100.00;61272.81;5249898;28;20033;-72
2022/07/30 02:48:30;;;;;;;16.15;11.07;;;;;;;-150.27;100.00;61272.81;5243808;28;20040;-72
2022/07/30 02:51:03;;;;;;;17.07;10.77;;;;;;;-150.27;100.00;61272.81;5253159;28;20348;-72
2022/07/30 02:53:36;;;;;;;12.47;10.50;;;;;;;-150.27;100.00;61272.81;5249012;28;20028;-72
2022/07/30 02:56:09;;;;;;;18.23;10.90;;;;;;;-150.27;100.00;61272.81;5249017;28;20402;-73
2022/07/30 02:58:43;;;;;;;14.68;10.35;;;;;;;-150.27;100.00;61272.81;5248004;28;20032;-73
2022/07/30 03:01:18;;;;;;;17.23;11.30;;;;;;;-150.27;100.00;61272.81;5249069;28;20056;-73
2022/07/30 03:03:51;;;;;;;15.27;11.07;;;;;;;-150.27;100.00;61272.81;5249957;28;20202;-72
2022/07/30 03:06:24;;;;;;;19.80;12.13;;;;;;;-150.27;100.00;61272.81;5250468;28;20592;-73
2022/07/30 03:08:56;;;;;;;17.13;11.97;;;;;;;-150.27;100.00;61272.81;5249418;28;20025;-73
2022/07/30 03:11:29;;;;;;;12.73;10.50;;;;;;;-150.27;100.00;61272.81;5248727;28;20575;-73
2022/07/30 03:14:02;;;;;;;16.73;11.30;;;;;;;-150.27;100.00;61272.81;5249588;28;20036;-73
2022/07/30 03:16:36;;;;;;;13.43;11.40;;;;;;;-150.27;100.00;61272.81;5249687;28;20090;-73
2022/07/30 03:19:08;;;;;;;17.40;11.60;;;;;;;-150.27;100.00;61272.81;5248368;28;20459;-73
2022/07/30 03:21:40;;;;;;;16.70;11.83;;;;;;;-150.27;100.00;61272.81;5248919;28;20106;-72
2022/07/30 03:24:13;;;;;;;14.73;12.20;;;;;;;-150.27;100.00;61272.81;5248754;28;20029;-74
2022/07/30 03:26:45;;;;;;;13.13;11.73;;;;;;;-150.27;100.00;61272.81;5248176;28;20383;-74
2022/07/30 03:29:19;;;;;;;17.33;11.97;;;;;;;-150.27;100.00;61272.81;5248382;28;20025;-74
2022/07/30 03:31:51;;;;;;;14.63;11.63;;;;;;;-150.27;100.00;61272.81;5250356;28;20661;-74
2022/07/30 03:34:23;;;;;;;18.10;11.97;;;;;;;-150.27;100.00;61272.81;5248143;28;20021;-73
2022/07/30 03:36:55;;;;;;;13.80;11.47;;;;;;;-150.27;100.00;61272.81;5249434;28;20029;-73
2022/07/30 03:39:28;;;;;;;15.40;11.67;;;;;;;-150.27;100.00;61272.81;5247954;28;20067;-74
2022/07/30 03:42:00;;;;;;;14.67;12.20;;;;;;;-150.27;100.00;61272.81;5248383;28;20037;-73
2022/07/30 03:44:32;;;;;;;16.63;12.87;;;;;;;-150.27;100.00;61272.81;5248571;28;20049;-73
2022/07/30 03:47:05;;;;;;;17.00;12.87;;;;;;;-150.27;100.00;61272.81;5234807;28;20029;-73
2022/07/30 03:49:37;;;;;;;17.13;11.93;;;;;;;-150.27;100.00;61272.81;5240601;28;20024;-73
2022/07/30 03:52:09;;;;;;;21.23;12.97;;;;;;;-150.27;100.00;61272.81;5231797;28;20078;-73
2022/07/30 03:54:41;;;;;;;15.53;12.67;;;;;;;-150.27;100.00;61272.81;5236349;28;20033;-73
2022/07/30 03:57:12;;;;;;;15.27;11.53;;;;;;;-150.27;100.00;61272.81;5231074;28;20478;-73
2022/07/30 03:59:45;;;;;;;17.23;11.67;;;;;;;-150.27;100.00;61272.81;5237023;28;20094;-74
2022/07/30 04:02:16;;;;;;;18.47;12.27;;;;;;;-150.27;100.00;61272.81;5247061;28;20036;-73
2022/07/30 04:04:48;;;;;;;17.57;12.13;;;;;;;-150.27;100.00;61272.81;5248265;28;20044;-73
2022/07/30 04:07:20;;;;;;;20.00;12.40;;;;;;;-150.27;100.00;61272.81;5234196;28;20030;-73
2022/07/30 04:09:51;;;;;;;15.10;12.43;;;;;;;-150.27;100.00;61272.81;5242399;28;20075;-73
2022/07/30 04:12:22;;;;;;;16.00;12.03;;;;;;;-150.27;100.00;61272.81;5255725;28;20028;-73
2022/07/30 04:14:56;;;;;;;15.83;12.40;;;;;;;-150.27;100.00;61272.81;5256452;28;20059;-73
2022/07/30 04:17:54;;;;;;;16.33;11.85;;;;;;;-150.27;100.00;61272.81;5252627;28;20074;-73
2022/07/30 04:20:33;;;;;;;17.33;12.33;;;;;;;-150.27;100.00;61272.81;5245720;28;20028;-69
2022/07/30 04:23:05;;;;;;;16.50;11.40;;;;;;;-150.27;100.00;61272.81;5252148;28;20043;-73
2022/07/30 04:25:39;;;;;;;18.43;12.43;;;;;;;-150.27;100.00;61272.81;5243468;28;20029;-73
2022/07/30 04:28:11;;;;;;;16.85;11.65;;;;;;;-150.27;100.00;61272.81;5247998;28;20420;-73
2022/07/30 04:30:42;;;;;;;16.07;11.47;;;;;;;-150.27;100.00;61272.81;5245917;28;20055;-75
2022/07/30 04:33:13;;;;;;;14.47;12.30;;;;;;;-150.27;100.00;61272.81;5251565;28;20111;-75
2022/07/30 04:35:45;;;;;;;14.37;11.47;;;;;;;-150.27;100.00;61272.81;5251680;28;20116;-75
2022/07/30 04:38:17;;;;;;;16.20;10.87;;;;;;;-150.27;100.00;61272.81;5252219;28;20083;-76
2022/07/30 04:40:48;;;;;;;18.60;11.07;;;;;;;-150.27;100.00;61272.81;5243737;28;20025;-72
2022/07/30 04:43:19;;;;;;;16.97;11.77;;;;;;;-150.27;100.00;61272.81;5247925;28;20712;-72
2022/07/30 04:45:51;;;;;;;13.60;9.87;;;;;;;-150.27;100.00;61272.81;5242650;28;20036;-71
2022/07/30 04:48:25;;;;;;;18.10;10.73;;;;;;;-150.27;100.00;61272.81;5245616;28;20064;-71
2022/07/30 04:51:01;;;;;;;14.45;10.60;;;;;;;-150.27;100.00;61272.81;5248660;28;20428;-72
2022/07/30 04:53:34;;;;;;;11.43;10.27;;;;;;;-150.27;100.00;61272.81;5242011;28;20083;-71
2022/07/30 04:56:05;;;;;;;14.47;11.30;;;;;;;-150.27;100.00;61272.81;5244295;28;20033;-71
2022/07/30 04:58:40;;;;;;;16.60;11.53;;;;;;;-150.27;100.00;61272.81;5241487;28;20033;-74
2022/07/30 05:01:17;;;;;;;16.17;10.80;;;;;;;-150.27;100.00;61272.81;5246019;28;20040;-75
2022/07/30 05:03:52;;;;;;;20.33;11.23;;;;;;;-150.27;100.00;61272.81;5244863;28;20539;-74
2022/07/30 05:06:24;;;;;;;17.77;11.60;;;;;;;-150.27;100.00;61272.81;5244577;28;20027;-75
2022/07/30 05:08:56;;;;;;;15.87;11.23;;;;;;;-150.27;100.00;61272.81;5244365;28;20021;-75
2022/07/30 05:11:28;;;;;;;15.23;11.20;;;;;;;-150.27;100.00;61272.81;5238677;28;20057;-73
2022/07/30 05:13:59;;;;;;;15.97;11.33;;;;;;;-150.27;100.00;61272.81;5250877;28;20053;-72
2022/07/30 05:16:32;;;;;;;14.43;9.53;;;;;;;-150.27;100.00;61272.81;5251993;28;20032;-72
2022/07/30 05:19:04;;;;;;;16.30;9.85;;;;;;;-150.27;100.00;61272.81;5249501;28;20025;-73
2022/07/30 05:21:35;;;;;;;17.47;10.87;;;;;;;-150.27;100.00;61272.81;5249946;28;20415;-72
2022/07/30 05:24:07;;;;;;;17.67;10.53;;;;;;;-150.27;100.00;61272.81;5250731;28;20102;-74
2022/07/30 05:26:39;;;;;;;16.10;10.37;;;;;;;-150.27;100.00;61272.81;5251309;28;20151;-74
2022/07/30 05:29:11;;;;;;;13.87;10.33;;;;;;;-150.27;100.00;61272.81;5254830;28;20033;-74
2022/07/30 05:31:42;;;;;;;20.53;11.13;;;;;;;-150.27;100.00;61272.81;5249234;28;20017;-74
2022/07/30 05:34:13;;;;;;;19.00;9.57;;;;;;;-150.27;100.00;61272.81;5249196;28;20033;-74
2022/07/30 05:36:44;;;;;;;15.67;9.80;;;;;;;-150.27;100.00;61272.81;5252177;28;20013;-74
2022/07/30 05:39:16;;;;;;;13.03;11.13;;;;;;;-150.27;100.00;61272.81;5248460;28;20025;-74
2022/07/30 05:41:48;;;;;;;15.43;11.07;;;;;;;-150.27;100.00;61272.81;5249604;28;20178;-74
2022/07/30 05:44:19;;;;;;;22.13;10.13;;;;;;;-150.27;100.00;61272.81;5250268;28;20050;-74
2022/07/30 05:46:51;;;;;;;22.87;11.27;;;;;;;-150.27;100.00;61272.81;5250553;28;20055;-74
2022/07/30 05:49:22;;;;;;;21.90;11.60;;;;;;;-150.27;100.00;61272.81;5249047;28;20543;-74
2022/07/30 05:51:53;;;;;;;16.50;11.23;;;;;;;-150.27;100.00;61272.81;5250226;28;20021;-74
2022/07/30 05:54:25;;;;;;;19.63;10.63;;;;;;;-150.27;100.00;61272.81;5248680;28;20032;-74
2022/07/30 05:56:56;;;;;;;17.80;10.70;;;;;;;-150.27;100.00;61272.81;5250675;28;20025;-74
2022/07/30 05:59:27;;;;;;;15.07;10.10;;;;;;;-150.27;100.00;61272.81;5249709;28;20031;-74
2022/07/30 06:02:00;;;;;;;15.27;9.80;;;;;;;-150.27;100.00;61272.81;5249879;28;20538;-74
2022/07/30 06:04:31;;;;;;;15.63;9.80;;;;;;;-150.27;100.00;61272.81;5253758;28;20506;-75
2022/07/30 06:07:03;;;;;;;14.67;9.27;;;;;;;-150.27;100.00;61272.81;5250056;28;20116;-74
2022/07/30 06:09:34;;;;;;;12.23;9.17;;;;;;;-150.27;100.00;61272.81;5248155;28;20161;-74
2022/07/30 06:12:05;;;;;;;16.77;10.03;;;;;;;-150.27;100.00;61272.81;5249524;28;20040;-74
2022/07/30 06:14:37;;;;;;;15.60;9.90;;;;;;;-150.27;100.00;61272.81;5249693;28;20036;-74
2022/07/30 06:17:08;;;;;;;11.83;9.50;;;;;;;-150.27;100.00;61272.81;5249467;28;20416;-74
2022/07/30 06:19:39;;;;;;;18.70;9.27;;;;;;;-150.27;100.00;61272.81;5250847;28;20593;-74
2022/07/30 06:22:10;;;;;;;15.33;9.60;;;;;;;-150.27;100.00;61272.81;5249064;28;20458;-74
2022/07/30 06:24:42;;;;;;;16.63;8.70;;;;;;;-150.27;100.00;61272.81;5249362;28;20052;-74
2022/07/30 06:27:13;;;;;;;14.00;8.47;;;;;;;-150.27;100.00;61272.81;5249915;28;20100;-74
2022/07/30 06:29:44;;;;;;;12.73;8.13;;;;;;;-150.27;100.00;61272.81;5250771;28;20025;-74
2022/07/30 06:32:16;;;;;;;14.50;7.80;;;;;;;-150.27;100.00;61272.81;5250165;28;20033;-74
2022/07/30 06:34:47;;;;;;;16.83;8.27;;;;;;;-150.27;100.00;61272.81;5248155;28;20477;-74
2022/07/30 06:37:18;;;;;;;15.93;8.67;;;;;;;-150.27;100.00;61272.81;5265814;28;20040;-73
2022/07/30 06:39:50;;;;;;;13.43;7.50;;;;;;;-150.27;100.00;61272.81;5250264;28;20021;-74
2022/07/30 06:42:21;;;;;;;12.37;8.57;;;;;;;-150.27;100.00;61272.81;5243390;28;20039;-74
2022/07/30 06:44:52;;;;;;;12.43;6.67;;;;;;;-150.27;100.00;61272.81;5249445;28;20033;-73
2022/07/30 06:47:28;;;;;;;12.07;8.17;;;;;;;-150.27;100.00;61272.81;5248526;28;20056;-74
2022/07/30 06:50:00;;;;;;;14.17;7.27;;;;;;;-150.27;100.00;61272.81;5248977;28;20788;-74
2022/07/30 06:52:32;;;;;;;12.13;6.00;;;;;;;-150.27;100.00;61272.81;5239718;28;20056;-75
2022/07/30 06:55:03;;;;;;;9.73;5.17;;;;;;;-150.27;100.00;61272.81;5239478;28;20052;-74
2022/07/30 06:57:35;;;;;;;14.07;5.20;;;;;;;-150.27;100.00;61272.81;5229356;28;20099;-74
2022/07/30 07:00:07;;;;;;;12.37;6.30;;;;;;;-150.27;100.00;61272.81;5229789;28;20091;-74
2022/07/30 07:02:38;;;;;;;9.00;5.73;;;;;;;-150.27;100.00;61272.81;5242531;28;20064;-74
2022/07/30 07:05:10;;;;;;;11.50;5.40;;;;;;;-150.27;100.00;61272.81;5249140;28;20051;-74
2022/07/30 07:07:41;;;;;;;18.00;5.93;;;;;;;-150.27;100.00;61272.81;5248740;28;20021;-74
2022/07/30 07:10:12;;;;;;;7.37;5.20;;;;;;;-150.27;100.00;61272.81;5247710;28;20102;-74
2022/07/30 07:12:44;;;;;;;10.90;5.73;;;;;;;-150.27;100.00;61272.81;5249287;28;20021;-73
2022/07/30 07:15:15;;;;;;;9.93;4.70;;;;;;;-150.27;100.00;61272.81;5250194;28;20017;-74
2022/07/30 07:17:46;;;;;;;10.47;3.97;;;;;;;-150.27;100.00;61272.81;5249915;28;20033;-74
2022/07/30 07:20:18;;;;;;;11.37;4.50;;;;;;;-150.27;100.00;61272.81;5250382;28;20032;-75
2022/07/30 07:22:49;;;;;;;11.03;4.57;;;;;;;-150.27;100.00;61272.81;5250175;28;20587;-82
2022/07/30 07:25:20;;;;;;;9.77;3.57;;;;;;;-150.27;100.00;61272.81;5249319;28;20690;-83
2022/07/30 07:27:52;;;;;;;10.20;3.47;;;;;;;-150.27;100.00;61272.81;5249178;28;20032;-84
2022/07/30 07:30:23;;;;;;;10.43;3.73;;;;;;;-150.27;100.00;61272.81;5249891;28;20059;-83
2022/07/30 07:32:54;;;;;;;9.37;3.17;;;;;;;-150.27;100.00;61272.81;5250465;28;20561;-84
2022/07/30 07:35:26;;;;;;;5.40;3.20;;;;;;;-150.27;100.00;61272.81;5247769;28;20669;-75
2022/07/30 07:37:57;;;;;;;8.97;2.57;;;;;;;-150.27;100.00;61272.81;5250341;28;20422;-75
2022/07/30 07:40:28;;;;;;;7.10;3.07;;;;;;;-150.27;100.00;61272.81;5248091;28;20040;-74
2022/07/30 07:43:00;;;;;;;8.10;3.50;;;;;;;-150.27;100.00;61272.81;5248032;28;20346;-75
2022/07/30 07:45:31;;;;;;;10.37;3.23;;;;;;;-150.27;100.00;61272.81;5249311;28;20112;-75
2022/07/30 07:48:03;;;;;;;6.57;3.33;;;;;;;-150.27;100.00;61272.81;5251148;28;20028;-81
2022/07/30 07:50:35;;;;;;;8.82;3.17;;;;;;;-150.27;100.00;61272.81;5251950;28;20029;-82
2022/07/30 07:53:06;;;;;;;5.00;2.45;;;;;;;-150.27;100.00;61272.81;5246980;28;20013;-86
2022/07/30 07:55:38;;;;;;;6.43;2.42;;;;;;;-150.27;100.00;61272.81;5237812;28;20021;-85
2022/07/30 07:58:12;;;;;;;8.02;2.65;;;;;;;-150.27;100.00;61272.81;5238549;28;20014;-85
2022/07/30 08:00:43;;;;;;;9.35;2.70;;;;;;;-150.27;100.00;61272.81;5238344;28;20028;-86
2022/07/30 08:03:15;;;;;;;8.20;2.22;;;;;;;-150.27;100.00;61272.81;5238049;28;20032;-85
2022/07/30 08:05:46;;;;;;;9.50;2.67;;;;;;;-150.27;100.00;61272.81;5238709;28;20034;-85
2022/07/30 08:08:17;;;;;;;3.03;1.67;;;;;;;-150.27;100.00;61272.81;5237290;28;20021;-83
2022/07/30 08:10:49;;;;;;;9.00;2.50;;;;;;;-150.27;100.00;61272.81;5223953;28;20030;-84
2022/07/30 08:13:20;;;;;;;5.38;2.20;;;;;;;-150.27;100.00;61272.81;5235770;28;20104;-76
2022/07/30 08:15:51;;;;;;;5.05;1.98;;;;;;;-150.27;100.00;61272.81;5248739;28;20048;-78
2022/07/30 08:18:23;;;;;;;4.85;1.80;;;;;;;-150.27;100.00;61272.81;5249488;28;20024;-78
2022/07/30 08:20:54;;;;;;;5.65;2.20;;;;;;;-150.27;100.00;61272.81;5249591;28;20163;-78
2022/07/30 08:23:25;;;;;;;7.38;2.40;;;;;;;-150.27;100.00;61272.81;5245762;28;20083;-77
2022/07/30 08:25:57;;;;;;;7.28;2.60;;;;;;;-150.27;100.00;61272.81;5245543;28;20457;-78
2022/07/30 08:28:28;;;;;;;5.10;2.55;;;;;;;-150.27;100.00;61272.81;5244107;28;20032;-78
2022/07/30 08:31:00;;;;;;;8.48;2.30;;;;;;;-150.27;100.00;61272.81;5240476;28;20561;-77
2022/07/30 08:33:31;;;;;;;5.53;2.53;;;;;;;-150.27;100.00;61272.81;5239557;28;20028;-77
2022/07/30 08:36:02;;;;;;;6.65;2.38;;;;;;;-150.27;100.00;61272.81;5241833;28;20021;-78
2022/07/30 08:38:34;;;;;;;6.43;2.58;;;;;;;-150.27;100.00;61272.81;5237503;28;20021;-79
2022/07/30 08:41:06;;;;;;;9.50;2.30;;;;;;;-150.27;100.00;61272.81;5246185;28;20104;-79
2022/07/30 08:43:38;;;;;;;6.35;2.15;;;;;;;-150.27;100.00;61272.81;5243490;28;20029;-76
2022/07/30 08:46:13;;;;;;;4.55;2.10;;;;;;;-150.27;100.00;61272.81;5263402;28;20420;-77
2022/07/30 08:48:45;;;;;;;5.43;2.10;;;;;;;-150.27;100.00;61272.81;5248052;28;20021;-77
2022/07/30 08:51:18;;;;;;;3.85;1.88;;;;;;;-150.27;100.00;61272.81;5248224;28;20450;-77
2022/07/30 08:53:49;;;;;;;8.73;1.92;;;;;;;-150.27;100.00;61272.81;5250131;28;20080;-78
2022/07/30 08:56:21;;;;;;;5.25;1.92;;;;;;;-150.27;100.00;61272.81;5249401;28;20029;-76
2022/07/30 08:58:54;;;;;;;6.57;2.25;;;;;;;-150.27;100.00;61272.81;5248870;28;20033;-78
2022/07/30 09:01:25;;;;;;;6.35;2.40;;;;;;;-150.27;100.00;61272.81;5251639;28;20033;-77
2022/07/30 09:03:56;;;;;;;5.03;1.92;;;;;;;-150.27;100.00;61272.81;5249154;28;20110;-77
2022/07/30 09:06:28;;;;;;;5.55;1.50;;;;;;;-150.27;100.00;61272.81;5266532;28;20124;-77
2022/07/30 09:08:59;;;;;;;6.03;1.75;;;;;;;-150.27;100.00;61272.81;5249942;28;20071;-77
2022/07/30 09:11:34;;;;;;;5.75;1.98;;;;;;;-150.27;100.00;61272.81;5251509;28;20072;-77
2022/07/30 09:14:10;;;;;;;10.15;2.13;;;;;;;-150.27;100.00;61272.81;5249583;28;20032;-77
2022/07/30 09:16:43;;;;;;;5.25;1.98;;;;;;;-150.27;100.00;61272.81;5238442;28;20017;-78
2022/07/30 09:19:16;;;;;;;6.75;2.00;;;;;;;-150.27;100.00;61272.81;5250273;28;20475;-78
2022/07/30 09:21:58;;;;;;;6.53;2.20;;;;;;;-150.27;100.00;61272.81;5246949;28;20028;-78
2022/07/30 09:24:41;;;;;;;7.88;2.65;;;;;;;-150.27;100.00;61272.81;5240525;28;20605;-77
2022/07/30 09:27:12;;;;;;;5.10;1.50;;;;;;;-150.27;100.00;61272.81;5250104;28;20013;-78
2022/07/30 09:29:55;;;;;;;5.97;1.90;;;;;;;-150.27;100.00;61272.81;5250433;28;20036;-78
2022/07/30 09:32:46;;;;;;;5.97;2.00;;;;;;;-150.27;100.00;61272.81;5249926;28;20112;-78
2022/07/30 09:35:18;;;;;;;8.73;2.00;;;;;;;-150.27;100.00;61272.81;5250332;28;20298;-78
2022/07/30 09:37:59;;;;;;;5.55;1.75;;;;;;;-150.27;100.00;61272.81;5249705;28;20029;-78
2022/07/30 09:40:31;;;;;;;6.85;1.63;;;;;;;-150.27;100.00;61272.81;5249549;28;20743;-77
2022/07/30 09:43:10;;;;;;;9.65;2.15;;;;;;;-150.27;100.00;61272.81;5248212;28;20037;-78
2022/07/30 09:45:52;;;;;;;3.22;1.27;;;;;;;-150.27;100.00;61272.81;5237425;28;20041;-78
2022/07/30 09:48:26;;;;;;;3.53;1.60;;;;;;;-150.27;100.00;61272.81;5249722;28;20123;-77
2022/07/30 09:50:57;;;;;;;7.05;2.03;;;;;;;-150.27;100.00;61272.81;5251687;28;20029;-78
2022/07/30 09:53:30;;;;;;;3.90;1.50;;;;;;;-150.27;100.00;61272.81;5248305;28;20025;-78
2022/07/30 09:56:23;;;;;;;4.13;1.67;;;;;;;-150.27;100.00;61272.81;5250285;28;20051;-77
2022/07/30 09:58:54;;;;;;;6.45;1.50;;;;;;;-150.27;100.00;61272.81;5249000;28;20036;-78
2022/07/30 10:01:27;;;;;;;5.57;1.63;;;;;;;-150.27;100.00;61272.81;5248036;28;20531;-78
2022/07/30 10:03:58;;;;;;;6.93;1.80;;;;;;;-150.27;100.00;61272.81;5249247;28;20588;-78
2022/07/30 10:06:35;;;;;;;5.95;1.50;;;;;;;-150.27;100.00;61272.81;5248497;28;20166;-78
2022/07/30 10:09:07;;;;;;;4.03;1.20;;;;;;;-150.27;100.00;61272.81;5249192;28;20033;-78
2022/07/30 10:11:38;;;;;;;6.07;1.48;;;;;;;-150.27;100.00;61272.81;5248470;28;20043;-78
2022/07/30 10:14:11;;;;;;;5.20;2.17;;;;;;;-150.27;100.00;61272.81;5237288;28;20056;-78
2022/07/30 10:16:42;;;;;;;3.25;1.38;;;;;;;-150.27;100.00;61272.81;5251016;28;20029;-78
2022/07/30 10:19:15;;;;;;;7.68;1.77;;;;;;;-150.27;100.00;61272.81;5250475;28;20037;-78
2022/07/30 10:21:49;;;;;;;4.93;1.57;;;;;;;-150.27;100.00;61272.81;5247775;28;20037;-77
2022/07/30 10:24:21;;;;;;;;;;;;;;;-150.27;100.00;61272.81;5245091;28;20487;-83
2022/07/30 10:26:53;;;;;;;3.95;1.30;;;;;;;-150.27;100.00;61272.81;5242303;28;19924;-80
2022/07/30 10:29:25;;;;;;;3.80;1.20;;;;;;;-150.27;100.00;61272.81;5249571;28;20029;-80
2022/07/30 10:31:56;;;;;;;3.90;1.50;;;;;;;-150.27;100.00;61272.81;5245081;28;20079;-81
2022/07/30 10:34:28;;;;;;;4.25;1.13;;;;;;;-150.27;100.00;61272.81;5244991;28;20037;-81
2022/07/30 10:37:03;;;;;;;2.40;1.42;;;;;;;-150.27;100.00;61272.81;5251939;28;20519;-81
2022/07/30 10:40:00;;;;;;;3.95;1.63;;;;;;;-150.27;100.00;61272.81;5240611;28;20115;-81
2022/07/30 10:42:39;;;;;;;4.97;1.52;;;;;;;-150.27;100.00;61272.81;5234951;28;20520;-81
2022/07/30 10:45:17;;;;;;;2.72;1.15;;;;;;;-150.27;100.00;61272.81;5231230;28;20076;-81
2022/07/30 10:47:50;;;;;;;5.63;1.65;;;;;;;-150.27;100.00;61272.81;5248997;28;20114;-81
2022/07/30 10:50:25;;;;;;;7.07;1.63;;;;;;;-150.27;100.00;61272.81;5230626;28;20026;-81
2022/07/30 10:53:00;;;;;;;3.83;1.20;;;;;;;-150.27;100.00;61272.81;5247926;28;20631;-81
2022/07/30 10:55:36;;;;;;;5.88;1.73;;;;;;;-150.27;100.00;61272.81;5249416;28;20021;-81
2022/07/30 10:58:10;;;;;;;3.10;0.90;;;;;;;-150.27;100.00;61272.81;5249639;28;20017;-81
2022/07/30 11:00:50;;;;;;;3.50;1.30;;;;;;;-150.27;100.00;61272.81;5250277;28;20557;-81
2022/07/30 11:03:24;;;;;;;3.88;1.55;;;;;;;-150.27;100.00;61272.81;5250488;28;20783;-80
2022/07/30 11:06:24;;;;;;;4.53;1.30;;;;;;;-150.27;100.00;61272.81;5247275;28;20026;-84
2022/07/30 11:08:55;;;;;;;4.30;1.40;;;;;;;-150.27;100.00;61272.81;5238612;28;20029;-85
2022/07/30 11:11:29;;;;;;;11.55;2.25;;;;;;;-150.27;100.00;61272.81;5237640;28;20024;-85
2022/07/30 11:14:01;;;;;;;3.40;1.10;;;;;;;-150.27;100.00;61272.81;5244094;28;20068;-83
2022/07/30 11:16:32;;;;;;;4.35;1.50;;;;;;;-150.27;100.00;61272.81;5247892;28;20057;-83
2022/07/30 11:19:16;;;;;;;3.97;1.13;;;;;;;-150.27;100.00;61272.81;5249404;28;20029;-83
2022/07/30 11:22:39;;;;;;;6.82;1.67;;;;;;;-150.27;100.00;61272.81;5246463;28;20039;-83
2022/07/30 11:25:31;;;;;;;5.90;1.20;;;;;;;-150.27;100.00;61272.81;5225502;28;20392;-82
2022/07/30 11:28:02;;;;;;;4.05;1.45;;;;;;;-150.27;100.00;61272.81;5241193;28;20090;-81
2022/07/30 11:30:35;;;;;;;4.45;1.38;;;;;;;-150.27;100.00;61272.81;5247869;28;20025;-81
2022/07/30 11:33:09;;;;;;;3.70;1.27;;;;;;;-150.27;100.00;61272.81;5248161;28;20449;-80
2022/07/30 11:35:41;;;;;;;4.40;1.42;;;;;;;-150.27;100.00;61272.81;5240005;28;20480;-84